createdAt,value
2022-12-18T00:01:33.077Z,53.71
2022-12-18T00:04:37.820Z,52.87
2022-12-18T00:07:42.438Z,54.27
2022-12-18T00:10:48.420Z,51.96
2022-12-18T00:13:56.255Z,50.29
2022-12-18T00:17:02.514Z,47.88
2022-12-18T00:20:07.774Z,47.11
2022-12-18T00:23:12.680Z,47.23
2022-12-18T00:26:28.831Z,45.93
2022-12-18T00:29:36.633Z,46.18
2022-12-18T00:32:43.940Z,45.90
2022-12-18T00:35:48.530Z,44.91
2022-12-18T00:38:53.534Z,42.91
2022-12-18T00:42:16.322Z,43.56
2022-12-18T00:45:20.814Z,43.12
2022-12-18T00:48:29.580Z,41.68
2022-12-18T00:51:34.563Z,44.89
2022-12-18T00:54:39.285Z,45.19
2022-12-18T00:57:45.687Z,45.03
2022-12-18T01:00:50.434Z,43.42
2022-12-18T01:03:54.648Z,42.67
2022-12-18T01:07:02.057Z,41.64
2022-12-18T01:10:08.395Z,42.20
2022-12-18T01:13:13.248Z,42.10
2022-12-18T01:16:19.600Z,40.83
2022-12-18T01:19:24.170Z,40.97
2022-12-18T01:22:29.256Z,43.61
2022-12-18T01:25:34.016Z,43.04
2022-12-18T01:28:39.232Z,44.16
2022-12-18T01:31:45.639Z,45.66
2022-12-18T01:34:50.592Z,45.50
2022-12-18T01:37:58.432Z,44.86
2022-12-18T01:41:03.850Z,44.58
2022-12-18T01:44:46.244Z,43.92
2022-12-18T01:47:53.971Z,42.88
2022-12-18T01:50:58.537Z,43.09
2022-12-18T01:54:05.756Z,44.68
2022-12-18T01:57:10.449Z,41.80
2022-12-18T02:00:22.293Z,42.50
2022-12-18T02:03:29.679Z,43.45
2022-12-18T02:06:44.912Z,43.47
2022-12-18T02:10:11.559Z,45.12
2022-12-18T02:13:56.058Z,42.59
2022-12-18T02:17:00.795Z,42.71
2022-12-18T02:20:25.392Z,43.94
2022-12-18T02:23:58.733Z,45.12
2022-12-18T02:27:08.164Z,45.24
2022-12-18T02:30:13.743Z,45.25
2022-12-18T02:33:21.665Z,45.06
2022-12-18T02:36:31.346Z,44.42
2022-12-18T02:39:39.511Z,46.08
2022-12-18T02:42:44.618Z,46.16
2022-12-18T02:46:04.104Z,45.88
2022-12-18T02:49:43.272Z,45.95
2022-12-18T02:53:03.220Z,47.81
2022-12-18T02:56:10.639Z,49.35
2022-12-18T02:59:27.450Z,49.49
2022-12-18T03:02:48.232Z,48.08
2022-12-18T03:06:17.035Z,48.07
2022-12-18T03:09:31.028Z,48.07
2022-12-18T03:12:42.585Z,47.47
2022-12-18T03:15:55.495Z,47.04
2022-12-18T03:19:09.432Z,46.78
2022-12-18T03:22:15.739Z,47.53
2022-12-18T03:25:29.449Z,46.75
2022-12-18T03:28:39.310Z,46.57
2022-12-18T03:32:02.924Z,46.77
2022-12-18T03:35:12.707Z,46.26
2022-12-18T03:38:18.344Z,46.28
2022-12-18T03:41:46.590Z,47.27
2022-12-18T03:45:41.391Z,46.15
2022-12-18T03:48:55.399Z,47.62
2022-12-18T03:52:08.736Z,47.61
2022-12-18T03:55:15.106Z,47.44
2022-12-18T03:58:25.638Z,47.08
2022-12-18T04:01:49.981Z,47.17
2022-12-18T04:05:00.126Z,48.43
2022-12-18T04:08:07.650Z,48.20
2022-12-18T04:11:15.763Z,49.08
2022-12-18T04:14:22.829Z,48.86
2022-12-18T04:17:31.281Z,49.12
2022-12-18T04:20:35.900Z,47.21
2022-12-18T04:23:41.177Z,47.41
2022-12-18T04:26:45.731Z,48.09
2022-12-18T04:29:54.102Z,45.98
2022-12-18T04:32:58.627Z,45.60
2022-12-18T04:36:02.972Z,45.78
2022-12-18T04:39:08.053Z,46.98
2022-12-18T04:42:13.124Z,48.06
2022-12-18T04:45:19.418Z,49.16
2022-12-18T04:48:23.946Z,49.45
2022-12-18T04:51:31.447Z,49.72
2022-12-18T04:54:36.071Z,49.47
2022-12-18T04:57:40.608Z,49.92
2022-12-18T05:00:45.791Z,50.10
2022-12-18T05:03:50.727Z,50.29
2022-12-18T05:06:55.230Z,49.42
2022-12-18T05:09:59.826Z,50.39
2022-12-18T05:13:04.196Z,50.26
2022-12-18T05:16:09.129Z,50.62
2022-12-18T05:19:13.829Z,50.72
2022-12-18T05:22:18.494Z,50.84
2022-12-18T05:25:24.073Z,51.20
2022-12-18T05:28:30.758Z,50.41
2022-12-18T05:31:39.661Z,50.18
2022-12-18T05:34:44.470Z,50.05
2022-12-18T05:37:49.096Z,49.19
2022-12-18T05:40:54.722Z,49.70
2022-12-18T05:43:59.189Z,49.04
2022-12-18T05:47:03.826Z,48.09
2022-12-18T05:50:09.382Z,49.02
2022-12-18T05:53:15.070Z,49.40
2022-12-18T05:56:22.446Z,50.25
2022-12-18T05:59:27.442Z,50.06
2022-12-18T06:02:32.199Z,49.35
2022-12-18T06:05:42.949Z,48.99
2022-12-18T06:08:48.201Z,49.70
2022-12-18T06:11:54.575Z,49.91
2022-12-18T06:14:59.197Z,49.38
2022-12-18T06:18:03.681Z,49.65
2022-12-18T06:21:08.427Z,49.71
2022-12-18T06:24:12.799Z,50.36
2022-12-18T06:27:17.817Z,50.79
2022-12-18T06:30:22.182Z,49.40
2022-12-18T06:33:29.981Z,51.17
2022-12-18T06:36:34.495Z,50.44
2022-12-18T06:39:40.119Z,50.73
2022-12-18T06:42:44.559Z,51.07
2022-12-18T06:45:54.369Z,50.98
2022-12-18T06:48:58.957Z,51.63
2022-12-18T06:52:03.505Z,51.17
2022-12-18T06:55:12.393Z,51.69
2022-12-18T06:58:17.417Z,51.39
2022-12-18T07:01:22.614Z,51.50
2022-12-18T07:04:32.291Z,50.74
2022-12-18T07:07:37.301Z,51.64
2022-12-18T07:10:50.661Z,51.18
2022-12-18T07:13:57.302Z,51.34
2022-12-18T07:17:04.922Z,51.17
2022-12-18T07:20:11.872Z,51.14
2022-12-18T07:23:16.455Z,52.13
2022-12-18T07:26:23.429Z,51.55
2022-12-18T07:29:27.958Z,51.52
2022-12-18T07:32:33.204Z,52.45
2022-12-18T07:35:40.405Z,52.94
2022-12-18T07:38:45.420Z,52.64
2022-12-18T07:42:09.539Z,52.67
2022-12-18T07:45:13.958Z,51.99
2022-12-18T07:48:18.380Z,52.74
2022-12-18T07:51:23.100Z,52.83
2022-12-18T07:54:27.861Z,52.63
2022-12-18T08:01:05.299Z,53.32
2022-12-18T08:04:11.163Z,53.93
2022-12-18T08:07:15.593Z,54.65
2022-12-18T08:10:20.933Z,53.63
2022-12-18T08:13:25.959Z,53.54
2022-12-18T08:16:30.883Z,53.41
2022-12-18T08:19:35.133Z,53.83
2022-12-18T08:22:41.146Z,54.09
2022-12-18T08:25:46.735Z,54.38
2022-12-18T08:28:53.108Z,54.18
2022-12-18T08:31:57.731Z,54.20
2022-12-18T08:35:02.594Z,53.63
2022-12-18T08:38:06.826Z,53.08
2022-12-18T08:41:14.339Z,52.68
2022-12-18T08:44:39.727Z,53.11
2022-12-18T08:47:44.059Z,52.94
2022-12-18T08:50:58.316Z,52.93
2022-12-18T08:54:03.034Z,52.89
2022-12-18T08:57:09.072Z,53.41
2022-12-18T09:00:15.087Z,54.14
2022-12-18T09:03:21.267Z,53.97
2022-12-18T09:06:26.264Z,53.66
2022-12-18T09:09:30.546Z,53.21
2022-12-18T09:12:34.925Z,53.87
2022-12-18T09:15:47.220Z,53.64
2022-12-18T09:18:51.649Z,54.03
2022-12-18T09:21:56.353Z,54.43
2022-12-18T09:25:00.538Z,53.64
2022-12-18T09:28:08.977Z,53.39
2022-12-18T09:31:18.219Z,53.31
2022-12-18T09:34:23.724Z,52.88
2022-12-18T09:37:28.186Z,52.59
2022-12-18T09:40:38.528Z,52.38
2022-12-18T09:43:57.770Z,52.60
2022-12-18T09:47:11.791Z,52.14
2022-12-18T09:50:39.692Z,51.77
2022-12-18T09:53:49.678Z,51.98
2022-12-18T09:56:54.172Z,52.38
2022-12-18T10:00:26.859Z,53.12
2022-12-18T10:03:31.490Z,52.87
2022-12-18T10:07:17.387Z,53.18
2022-12-18T10:10:27.846Z,53.12
2022-12-18T10:14:10.836Z,53.29
2022-12-18T10:18:06.029Z,52.66
2022-12-18T10:21:20.927Z,51.46
2022-12-18T10:24:40.721Z,52.39
2022-12-18T10:27:45.417Z,52.92
2022-12-18T10:30:49.593Z,52.24
2022-12-18T10:33:56.938Z,53.43
2022-12-18T10:37:08.764Z,52.35
2022-12-18T10:40:22.381Z,51.77
2022-12-18T10:43:42.931Z,50.87
2022-12-18T10:46:51.028Z,50.48
2022-12-18T10:49:57.355Z,50.77
2022-12-18T10:53:05.345Z,51.13
2022-12-18T10:56:10.223Z,51.32
2022-12-18T10:59:17.596Z,51.19
2022-12-18T11:02:30.821Z,51.28
2022-12-18T11:05:38.853Z,51.13
2022-12-18T11:08:49.092Z,50.95
2022-12-18T11:11:59.287Z,52.98
2022-12-18T11:15:03.979Z,53.87
2022-12-18T11:18:21.926Z,55.32
2022-12-18T11:21:28.144Z,54.70
2022-12-18T11:24:38.308Z,53.97
2022-12-18T11:27:42.969Z,53.61
2022-12-18T11:30:48.604Z,54.34
2022-12-18T11:37:27.511Z,53.79
2022-12-18T11:40:41.484Z,53.92
2022-12-18T11:44:01.081Z,53.50
2022-12-18T11:47:28.074Z,54.07
2022-12-18T11:50:39.578Z,54.57
2022-12-18T11:53:44.197Z,55.23
2022-12-18T11:57:26.118Z,54.87
2022-12-18T12:00:31.855Z,54.16
2022-12-18T12:03:50.553Z,54.79
2022-12-18T12:07:11.984Z,52.80
2022-12-18T12:10:35.706Z,53.03
2022-12-18T12:14:08.974Z,54.27
2022-12-18T12:17:51.959Z,53.40
2022-12-18T12:21:22.140Z,52.81
2022-12-18T12:24:47.682Z,53.63
2022-12-18T12:28:02.466Z,53.95
2022-12-18T12:31:14.623Z,53.31
2022-12-18T12:34:26.014Z,52.96
2022-12-18T12:37:39.695Z,52.87
2022-12-18T12:41:28.789Z,53.83
2022-12-18T12:44:41.712Z,52.57
2022-12-18T12:47:49.351Z,53.29
2022-12-18T12:50:55.768Z,53.90
2022-12-18T12:54:02.589Z,53.57
2022-12-18T12:57:25.832Z,52.28
2022-12-18T13:00:41.941Z,53.65
2022-12-18T13:03:58.954Z,53.75
2022-12-18T13:07:16.943Z,53.97
2022-12-18T13:10:23.142Z,53.40
2022-12-18T13:13:56.468Z,54.08
2022-12-18T13:17:23.337Z,54.48
2022-12-18T13:20:36.785Z,54.83
2022-12-18T13:23:42.192Z,54.48
2022-12-18T13:26:46.971Z,53.72
2022-12-18T13:29:53.614Z,52.71
2022-12-18T13:33:23.585Z,52.11
2022-12-18T13:36:34.152Z,52.63
2022-12-18T13:39:38.815Z,51.86
2022-12-18T13:43:02.002Z,53.01
2022-12-18T13:46:30.889Z,53.70
2022-12-18T13:49:43.097Z,54.53
2022-12-18T13:52:48.203Z,54.46
2022-12-18T13:55:52.723Z,55.20
2022-12-18T13:59:28.752Z,56.10
2022-12-18T14:02:33.787Z,55.38
2022-12-18T14:05:41.023Z,56.87
2022-12-18T14:08:49.786Z,58.27
2022-12-18T14:12:15.770Z,57.99
2022-12-18T14:15:29.533Z,57.56
2022-12-18T14:18:34.001Z,57.91
2022-12-18T14:21:40.286Z,57.90
2022-12-18T14:24:45.003Z,58.02
2022-12-18T14:27:53.651Z,58.33
2022-12-18T14:30:58.366Z,58.09
2022-12-18T14:34:02.567Z,57.11
2022-12-18T14:37:08.765Z,55.93
2022-12-18T14:40:16.557Z,55.54
2022-12-18T14:43:21.099Z,55.04
2022-12-18T14:46:46.149Z,54.35
2022-12-18T14:49:50.858Z,54.27
2022-12-18T14:52:55.616Z,55.48
2022-12-18T14:56:00.125Z,56.21
2022-12-18T14:59:17.027Z,57.05
2022-12-18T15:02:26.836Z,56.98
2022-12-18T15:05:34.577Z,56.67
2022-12-18T15:08:39.553Z,55.90
2022-12-18T15:11:43.848Z,56.47
2022-12-18T15:14:48.507Z,56.84
2022-12-18T15:18:03.492Z,56.04
2022-12-18T15:21:13.847Z,55.97
2022-12-18T15:24:33.024Z,56.99
2022-12-18T15:27:39.766Z,56.07
2022-12-18T15:31:23.106Z,56.92
2022-12-18T15:34:28.134Z,57.10
2022-12-18T15:37:32.716Z,57.41
2022-12-18T15:40:37.533Z,57.99
2022-12-18T15:43:44.521Z,57.60
2022-12-18T15:46:49.327Z,57.03
2022-12-18T15:49:54.079Z,56.37
2022-12-18T15:52:58.310Z,56.73
2022-12-18T15:56:20.894Z,56.31
2022-12-18T15:59:25.644Z,56.42
2022-12-18T16:02:30.695Z,55.56
2022-12-18T16:05:35.607Z,55.04
2022-12-18T16:08:40.373Z,56.18
2022-12-18T16:11:49.238Z,56.43
2022-12-18T16:14:53.938Z,57.28
2022-12-18T16:17:58.112Z,56.69
2022-12-18T16:21:02.568Z,57.53
2022-12-18T16:24:07.355Z,56.50
2022-12-18T16:27:11.913Z,55.57
2022-12-18T16:30:22.527Z,55.09
2022-12-18T16:33:26.967Z,55.75
2022-12-18T16:36:32.045Z,55.91
2022-12-18T16:39:38.327Z,56.50
2022-12-18T16:42:44.892Z,56.65
2022-12-18T16:45:49.341Z,57.08
2022-12-18T16:48:53.952Z,56.02
2022-12-18T16:51:58.734Z,56.54
2022-12-18T16:55:06.677Z,56.46
2022-12-18T16:58:11.872Z,57.25
2022-12-18T17:01:16.546Z,58.42
2022-12-18T17:04:20.720Z,57.95
2022-12-18T17:07:26.015Z,58.93
2022-12-18T17:10:30.445Z,59.92
2022-12-18T17:13:35.272Z,59.17
2022-12-18T17:16:40.215Z,57.20
2022-12-18T17:19:44.476Z,56.60
2022-12-18T17:22:48.893Z,56.01
2022-12-18T17:25:57.752Z,55.76
2022-12-18T17:29:02.243Z,55.80
2022-12-18T17:32:06.831Z,55.15
2022-12-18T17:35:11.742Z,55.94
2022-12-18T17:38:15.857Z,55.76
2022-12-18T17:41:22.048Z,55.82
2022-12-18T17:44:26.585Z,56.11
2022-12-18T17:47:31.895Z,56.78
2022-12-18T17:50:39.726Z,56.71
2022-12-18T17:53:44.883Z,56.37
2022-12-18T17:56:49.732Z,56.14
2022-12-18T17:59:54.218Z,55.58
2022-12-18T18:03:00.223Z,56.01
2022-12-18T18:06:06.237Z,56.24
2022-12-18T18:09:16.151Z,57.12
2022-12-18T18:12:39.886Z,55.85
2022-12-18T18:15:44.264Z,56.99
2022-12-18T18:18:48.788Z,56.83
2022-12-18T18:21:54.890Z,56.48
2022-12-18T18:24:59.401Z,56.92
2022-12-18T18:28:07.776Z,56.92
2022-12-18T18:31:13.394Z,56.22
2022-12-18T18:34:26.335Z,55.67
2022-12-18T18:37:30.817Z,56.04
2022-12-18T18:40:35.254Z,56.51
2022-12-18T18:43:39.983Z,55.77
2022-12-18T18:46:44.353Z,57.83
2022-12-18T18:49:48.938Z,57.19
2022-12-18T18:52:53.207Z,58.53
2022-12-18T18:56:40.866Z,57.53
2022-12-18T18:59:30.158Z,57.84
2022-12-18T19:02:36.442Z,57.93
2022-12-18T19:05:43.036Z,58.44
2022-12-18T19:08:50.774Z,58.01
2022-12-18T19:12:14.235Z,56.30
2022-12-18T19:15:22.437Z,55.99
2022-12-18T19:18:26.943Z,56.68
2022-12-18T19:21:34.680Z,57.04
2022-12-18T19:24:39.582Z,56.35
2022-12-18T19:27:44.002Z,56.16
2022-12-18T19:30:48.418Z,56.74
2022-12-18T19:33:52.944Z,56.55
2022-12-18T19:36:59.861Z,56.12
2022-12-18T19:40:12.061Z,57.53
2022-12-18T19:43:17.270Z,56.27
2022-12-18T19:46:23.763Z,55.61
2022-12-18T19:49:28.666Z,55.98
2022-12-18T19:52:34.142Z,55.95
2022-12-18T19:55:45.428Z,56.29
2022-12-18T19:58:52.146Z,56.50
2022-12-18T20:01:56.652Z,56.11
2022-12-18T20:05:01.534Z,56.78
2022-12-18T20:08:06.845Z,55.99
2022-12-18T20:11:12.265Z,56.20
2022-12-18T20:14:22.640Z,57.04
2022-12-18T20:17:27.878Z,58.13
2022-12-18T20:20:34.179Z,58.39
2022-12-18T20:23:38.896Z,58.93
2022-12-18T20:26:43.940Z,57.45
2022-12-18T20:29:49.457Z,56.93
2022-12-18T20:32:53.827Z,57.48
2022-12-18T20:36:08.366Z,57.13
2022-12-18T20:39:13.555Z,55.85
2022-12-18T20:42:19.187Z,56.61
2022-12-18T20:45:23.685Z,55.81
2022-12-18T20:48:29.922Z,56.96
2022-12-18T20:51:35.765Z,57.33
2022-12-18T20:54:40.442Z,56.69
2022-12-18T20:57:45.106Z,56.47
2022-12-18T21:00:51.010Z,57.44
2022-12-18T21:03:55.820Z,57.41
2022-12-18T21:07:02.707Z,57.87
2022-12-18T21:10:08.329Z,58.43
2022-12-18T21:13:12.973Z,59.22
2022-12-18T21:16:18.977Z,59.25
2022-12-18T21:19:26.305Z,59.89
2022-12-18T21:22:30.793Z,59.96
2022-12-18T21:25:35.230Z,58.75
2022-12-18T21:28:39.733Z,57.06
2022-12-18T21:31:45.090Z,56.66
2022-12-18T21:34:49.675Z,58.74
2022-12-18T21:37:54.457Z,58.00
2022-12-18T21:40:58.898Z,56.05
2022-12-18T21:44:06.931Z,55.97
2022-12-18T21:47:23.065Z,55.28
2022-12-18T21:50:27.817Z,56.06
2022-12-18T21:53:32.145Z,56.06
2022-12-18T21:56:52.107Z,56.44
2022-12-18T21:59:56.450Z,55.20
2022-12-18T22:03:18.232Z,55.70
2022-12-18T22:06:24.164Z,56.56
2022-12-18T22:09:28.570Z,57.90
2022-12-18T22:12:43.771Z,57.17
2022-12-18T22:15:49.694Z,57.23
2022-12-18T22:18:54.482Z,57.29
2022-12-18T22:21:58.926Z,58.73
2022-12-18T22:25:03.587Z,57.14
2022-12-18T22:28:26.879Z,57.20
2022-12-18T22:31:34.435Z,57.45
2022-12-18T22:34:39.498Z,58.05
2022-12-18T22:37:44.372Z,56.70
2022-12-18T22:40:48.531Z,55.94
2022-12-18T22:43:52.915Z,56.47
2022-12-18T22:47:06.203Z,58.56
2022-12-18T22:50:15.548Z,57.95
2022-12-18T22:53:20.312Z,56.92
2022-12-18T22:56:25.579Z,58.22
2022-12-18T22:59:30.310Z,58.09
2022-12-18T23:02:35.068Z,57.30
2022-12-18T23:05:39.421Z,56.37
2022-12-18T23:08:45.509Z,57.21
2022-12-18T23:11:50.010Z,57.54
2022-12-18T23:14:54.482Z,57.69
2022-12-18T23:18:00.304Z,57.17
2022-12-18T23:21:09.747Z,56.74
2022-12-18T23:24:14.729Z,57.55
2022-12-18T23:27:20.594Z,57.43
2022-12-18T23:30:25.916Z,58.38
2022-12-18T23:33:30.632Z,58.07
2022-12-18T23:36:45.360Z,59.11
2022-12-18T23:39:50.882Z,58.72
2022-12-18T23:42:55.562Z,59.23
2022-12-18T23:46:00.333Z,58.72
2022-12-18T23:49:06.525Z,58.03
2022-12-18T23:52:11.152Z,57.21
2022-12-18T23:55:15.540Z,57.87
2022-12-18T23:58:22.920Z,58.33
